Time;durP1;ratioP1;P1;durP2;ratioP2;P2;SDS_P1;SDS_P2;PMS_P1;PMS_P2;Temp;Humidity;BMP_temperature;BMP_pressure;BME280_temperature;BME280_humidity;BME280_pressure;Samples;Min_cycle;Max_cycle;Signal;HPM_P1;HPM_P2
2021/03/29 00:02:00;;;;;;;6.03;1.80;;;;;;;10.62;84.85;101811.84;5033104;28;20273;-69
2021/03/29 00:04:26;;;;;;;5.00;1.80;;;;;;;10.58;85.24;101807.94;5018576;28;20180;-69
2021/03/29 00:06:55;;;;;;;5.67;1.87;;;;;;;10.58;84.55;101812.53;5050833;28;20255;-69
2021/03/29 00:09:24;;;;;;;6.00;2.00;;;;;;;10.48;85.27;101821.34;5018754;28;20182;-71
2021/03/29 00:11:54;;;;;;;4.40;1.80;;;;;;;10.54;85.32;101825.78;5051051;28;20239;-71
2021/03/29 00:14:20;;;;;;;4.70;1.90;;;;;;;10.51;85.11;101809.16;5034762;28;20293;-70
2021/03/29 00:16:45;;;;;;;10.37;2.33;;;;;;;10.37;85.69;101816.78;5033917;28;20219;-70
2021/03/29 00:19:11;;;;;;;5.90;2.00;;;;;;;10.56;84.91;101829.09;5051180;28;20183;-69
2021/03/29 00:21:39;;;;;;;3.73;1.90;;;;;;;10.40;85.51;101813.59;5017240;28;20226;-71
2021/03/29 00:24:05;;;;;;;9.10;2.40;;;;;;;10.33;86.43;101811.25;5050687;28;20188;-71
2021/03/29 00:26:37;;;;;;;7.23;2.30;;;;;;;10.45;86.54;101812.84;5033728;28;20262;-70
2021/03/29 00:29:05;;;;;;;5.47;1.90;;;;;;;10.39;85.85;101811.09;5034576;28;20194;-70
2021/03/29 00:31:35;;;;;;;6.10;2.20;;;;;;;10.33;86.29;101809.38;5017523;28;20956;-70
2021/03/29 00:34:03;;;;;;;6.83;2.23;;;;;;;10.42;86.34;101814.16;5019207;28;20259;-68
2021/03/29 00:36:29;;;;;;;5.97;1.83;;;;;;;10.43;85.51;101810.38;5034674;28;20263;-70
2021/03/29 00:38:55;;;;;;;5.07;2.10;;;;;;;10.43;85.35;101796.78;5034665;28;20210;-70
2021/03/29 00:41:21;;;;;;;5.63;1.90;;;;;;;10.35;87.01;101803.66;5033741;28;20281;-70
2021/03/29 00:43:46;;;;;;;6.90;2.00;;;;;;;10.51;86.37;101798.28;5050566;28;20203;-69
2021/03/29 00:46:13;;;;;;;8.03;2.63;;;;;;;10.34;86.45;101802.03;5033367;28;20304;-70
2021/03/29 00:48:38;;;;;;;4.40;1.90;;;;;;;10.42;86.53;101800.59;5050416;28;20216;-70
2021/03/29 00:51:08;;;;;;;5.47;1.97;;;;;;;10.58;85.92;101805.22;5016699;28;20219;-70
2021/03/29 00:53:37;;;;;;;5.07;1.97;;;;;;;10.49;86.66;101800.41;5032657;28;20203;-70
2021/03/29 00:56:05;;;;;;;5.40;1.90;;;;;;;10.74;85.05;101795.47;5013961;28;20291;-69
2021/03/29 00:58:31;;;;;;;6.73;2.17;;;;;;;10.72;84.68;101787.53;4997549;28;20175;-69
2021/03/29 01:00:58;;;;;;;6.03;1.93;;;;;;;10.63;85.48;101788.19;5013226;28;20228;-69
2021/03/29 01:03:31;;;;;;;7.20;2.33;;;;;;;10.71;85.10;101787.78;5029196;28;20227;-69
2021/03/29 01:06:07;;;;;;;5.83;2.10;;;;;;;10.73;84.61;101783.75;5013175;28;20238;-69
2021/03/29 01:08:38;;;;;;;6.17;2.23;;;;;;;10.79;83.68;101777.34;5029737;28;20243;-69
2021/03/29 01:11:07;;;;;;;3.97;1.90;;;;;;;10.72;84.36;101784.81;5021096;28;20223;-68
2021/03/29 01:13:33;;;;;;;5.50;2.00;;;;;;;10.70;85.14;101781.53;5015921;28;20196;-71
2021/03/29 01:15:59;;;;;;;6.87;1.97;;;;;;;10.67;85.21;101784.72;5013081;28;20224;-70
2021/03/29 01:18:29;;;;;;;7.07;2.10;;;;;;;10.78;84.82;101778.41;5029477;28;20250;-71
2021/03/29 01:21:01;;;;;;;8.00;2.30;;;;;;;10.70;84.38;101776.09;4999951;28;20222;-71
2021/03/29 01:23:27;;;;;;;7.27;2.40;;;;;;;10.69;84.77;101774.44;5028978;28;20605;-69
2021/03/29 01:26:15;;;;;;;6.93;2.27;;;;;;;10.76;84.94;101769.66;5028923;28;20220;-70
2021/03/29 01:28:43;;;;;;;6.93;2.40;;;;;;;10.79;84.31;101777.34;4998949;28;20222;-69
2021/03/29 01:31:09;;;;;;;5.30;2.20;;;;;;;10.85;84.24;101769.00;5012790;28;20774;-69
2021/03/29 01:33:35;;;;;;;5.90;2.50;;;;;;;10.80;84.90;101776.25;5012146;28;20196;-69
2021/03/29 01:36:05;;;;;;;5.33;2.40;;;;;;;10.70;85.18;101769.84;4996828;28;20230;-69
2021/03/29 01:38:31;;;;;;;5.73;2.03;;;;;;;10.75;85.35;101768.84;5029399;28;20176;-71
2021/03/29 01:40:57;;;;;;;5.83;2.33;;;;;;;10.74;85.57;101765.56;5012243;28;20282;-70
2021/03/29 01:43:23;;;;;;;7.73;2.50;;;;;;;10.85;84.71;101766.28;5011902;28;20188;-69
2021/03/29 01:45:49;;;;;;;5.00;2.50;;;;;;;10.75;84.64;101774.28;4995969;28;20235;-69
2021/03/29 01:48:14;;;;;;;7.27;2.37;;;;;;;10.77;84.77;101774.06;5013402;28;20234;-70
2021/03/29 01:50:42;;;;;;;7.73;2.47;;;;;;;10.74;85.46;101775.34;5012958;28;20231;-69
2021/03/29 01:53:08;;;;;;;8.70;2.47;;;;;;;10.78;84.83;101778.41;5012777;28;20215;-69
2021/03/29 01:55:36;;;;;;;5.37;2.60;;;;;;;10.72;85.03;101781.28;5013150;28;20231;-69
2021/03/29 01:58:05;;;;;;;6.40;2.10;;;;;;;10.77;84.78;101779.50;5030072;28;20187;-69
2021/03/29 02:00:51;;;;;;;7.63;2.30;;;;;;;10.73;84.46;101774.78;5012561;28;20235;-69
2021/03/29 02:03:18;;;;;;;5.20;2.10;;;;;;;10.75;84.81;101773.47;5014766;28;20199;-69
2021/03/29 02:05:43;;;;;;;6.83;2.30;;;;;;;10.77;83.66;101772.16;5028617;28;20696;-69
2021/03/29 02:08:14;;;;;;;6.30;2.30;;;;;;;10.79;83.96;101772.72;5029078;28;20223;-68
2021/03/29 02:10:40;;;;;;;6.03;2.30;;;;;;;10.76;83.82;101775.91;5028694;28;20246;-69
2021/03/29 02:13:12;;;;;;;6.20;2.27;;;;;;;10.67;84.70;101770.31;5028091;28;20682;-69
2021/03/29 02:15:38;;;;;;;6.10;2.03;;;;;;;10.62;85.40;101768.34;5028498;28;20297;-69
2021/03/29 02:18:06;;;;;;;7.03;2.23;;;;;;;10.74;85.04;101771.81;5012739;28;20180;-70
2021/03/29 02:20:35;;;;;;;6.30;2.70;;;;;;;10.78;83.99;101768.34;5012791;28;20614;-69
2021/03/29 02:23:01;;;;;;;7.07;2.33;;;;;;;10.75;84.50;101773.47;5012710;28;20209;-71
2021/03/29 02:25:27;;;;;;;7.47;2.67;;;;;;;10.62;84.96;101772.94;5029351;28;20231;-69
2021/03/29 02:27:53;;;;;;;6.07;2.80;;;;;;;10.75;84.31;101774.28;5014396;28;20223;-69
2021/03/29 02:30:24;;;;;;;6.13;2.40;;;;;;;10.67;85.45;101771.13;4997476;28;20196;-69
2021/03/29 02:32:49;;;;;;;7.30;2.30;;;;;;;10.71;84.25;101761.44;5028109;28;20208;-71
2021/03/29 02:35:15;;;;;;;4.97;2.07;;;;;;;10.71;84.93;101772.28;4995033;28;20191;-69
2021/03/29 02:37:46;;;;;;;7.20;2.47;;;;;;;10.73;84.13;101763.91;5012378;28;20230;-69
2021/03/29 02:40:14;;;;;;;7.00;2.23;;;;;;;10.51;85.56;101761.09;5028887;28;20176;-70
2021/03/29 02:42:42;;;;;;;7.70;2.40;;;;;;;10.50;86.16;101759.44;5027992;28;20192;-71
2021/03/29 02:45:11;;;;;;;4.83;2.10;;;;;;;10.60;85.14;101761.50;5028086;28;20195;-70
2021/03/29 02:47:40;;;;;;;8.03;2.50;;;;;;;10.55;85.19;101762.25;5008907;28;20204;-69
2021/03/29 02:50:19;;;;;;;6.37;2.57;;;;;;;10.50;85.22;101764.88;5012256;28;20176;-69
2021/03/29 02:52:50;;;;;;;8.03;3.20;;;;;;;10.26;87.14;101756.28;5031900;28;20226;-69
2021/03/29 02:55:16;;;;;;;6.67;2.50;;;;;;;10.51;85.13;101761.09;5052875;28;20179;-71
2021/03/29 02:57:43;;;;;;;6.07;2.90;;;;;;;10.49;85.49;101765.09;5019407;28;20176;-69
2021/03/29 03:00:13;;;;;;;7.80;2.23;;;;;;;10.50;85.66;101766.78;5052530;28;20190;-69
2021/03/29 03:02:39;;;;;;;7.93;2.63;;;;;;;10.45;85.69;101761.22;5034532;28;20219;-69
2021/03/29 03:05:11;;;;;;;7.73;2.47;;;;;;;10.39;86.21;101756.78;5051689;28;20209;-69
2021/03/29 03:07:40;;;;;;;8.17;2.53;;;;;;;10.53;85.51;101758.97;5036051;28;20693;-69
2021/03/29 03:10:10;;;;;;;6.37;2.50;;;;;;;10.50;85.58;101754.00;5052304;28;20532;-71
2021/03/29 03:12:36;;;;;;;6.50;2.50;;;;;;;10.48;85.95;101739.03;5022411;28;20239;-71
2021/03/29 03:15:09;;;;;;;8.83;2.40;;;;;;;10.55;85.18;101735.09;5014877;28;20721;-69
2021/03/29 03:17:37;;;;;;;6.60;2.20;;;;;;;10.51;85.32;101733.94;5031032;28;20190;-69
2021/03/29 03:20:09;;;;;;;4.57;2.40;;;;;;;10.51;84.85;101736.66;5015525;28;20196;-70
2021/03/29 03:22:37;;;;;;;8.77;2.80;;;;;;;10.58;85.11;101733.75;5029613;28;20229;-69
2021/03/29 03:25:24;;;;;;;7.67;2.83;;;;;;;10.70;83.89;101737.25;5031567;28;20220;-69
2021/03/29 03:27:52;;;;;;;4.97;2.10;;;;;;;10.76;83.10;101731.63;4996338;28;20429;-68
2021/03/29 03:30:24;;;;;;;7.60;2.60;;;;;;;10.63;83.74;101731.94;5011369;28;20200;-69
2021/03/29 03:32:50;;;;;;;8.10;2.40;;;;;;;10.65;83.79;101729.00;5027810;28;20867;-69
2021/03/29 03:35:17;;;;;;;6.20;2.63;;;;;;;10.62;83.24;101724.88;5027925;28;20177;-69
2021/03/29 03:37:44;;;;;;;6.13;2.40;;;;;;;10.58;83.57;101728.31;5013402;28;20531;-69
2021/03/29 03:40:13;;;;;;;7.93;2.93;;;;;;;10.63;83.38;101737.38;5027612;28;20185;-69
2021/03/29 03:42:39;;;;;;;6.83;2.30;;;;;;;10.60;84.13;101728.91;5027413;28;21067;-69
2021/03/29 03:45:08;;;;;;;9.23;3.00;;;;;;;10.77;82.33;101736.00;5027534;28;20675;-70
2021/03/29 03:47:34;;;;;;;6.50;2.57;;;;;;;10.76;82.45;101724.28;4995990;28;20678;-70
2021/03/29 03:50:02;;;;;;;6.77;2.23;;;;;;;10.57;82.62;101727.50;5014921;28;20193;-69
2021/03/29 03:52:30;;;;;;;6.53;2.60;;;;;;;10.78;82.52;101738.44;5029207;28;20635;-69
2021/03/29 03:54:55;;;;;;;6.83;2.60;;;;;;;10.58;82.70;101734.56;4999579;28;20263;-69
2021/03/29 03:57:21;;;;;;;8.50;2.73;;;;;;;10.75;81.99;101736.25;5011598;28;20600;-70
2021/03/29 03:59:46;;;;;;;7.57;2.97;;;;;;;10.63;82.41;101742.81;5011346;28;20959;-70
2021/03/29 04:02:12;;;;;;;7.77;3.33;;;;;;;10.64;82.61;101744.47;5005081;28;20231;-71
2021/03/29 04:04:38;;;;;;;8.93;3.00;;;;;;;10.55;83.32;101745.09;4980073;28;20185;-69
2021/03/29 04:07:04;;;;;;;9.07;2.87;;;;;;;10.70;82.68;101732.63;5028973;28;20659;-69
2021/03/29 04:09:54;;;;;;;7.80;2.80;;;;;;;10.62;82.87;101735.75;5030569;28;20529;-68
2021/03/29 04:12:17;;;;;;;8.53;3.00;;;;;;;10.68;82.25;101740.19;5016880;28;20228;-69
2021/03/29 04:14:43;;;;;;;9.67;3.60;;;;;;;10.84;81.20;101739.34;5016351;28;20262;-69
2021/03/29 04:17:11;;;;;;;6.63;2.93;;;;;;;10.75;81.81;101740.88;4999642;28;20224;-68
2021/03/29 04:19:37;;;;;;;7.67;3.40;;;;;;;10.70;81.85;101743.50;5033482;28;20195;-69
2021/03/29 04:22:03;;;;;;;7.27;3.50;;;;;;;10.87;81.33;101738.88;5029855;28;20721;-69
2021/03/29 04:24:29;;;;;;;9.27;3.20;;;;;;;10.83;81.87;101735.81;4998274;28;20195;-68
2021/03/29 04:26:55;;;;;;;7.93;3.40;;;;;;;10.76;81.92;101748.75;5013360;28;20236;-69
2021/03/29 04:29:20;;;;;;;7.47;3.20;;;;;;;10.87;81.02;101744.31;4998410;28;20184;-69
2021/03/29 04:31:46;;;;;;;8.97;3.23;;;;;;;10.80;82.38;101730.06;5030821;28;20224;-69
2021/03/29 04:34:11;;;;;;;8.00;3.50;;;;;;;10.73;82.55;101742.16;5014426;28;20238;-69
2021/03/29 04:36:37;;;;;;;9.53;3.87;;;;;;;10.73;83.33;101737.53;5030848;28;20255;-69
2021/03/29 04:39:03;;;;;;;8.83;3.70;;;;;;;10.72;84.14;101725.03;5048691;28;20230;-69
2021/03/29 04:41:28;;;;;;;12.10;4.13;;;;;;;10.62;84.79;101729.47;5034266;28;20220;-71
2021/03/29 04:43:54;;;;;;;9.33;3.40;;;;;;;10.79;84.09;101736.59;5050923;28;20207;-69
2021/03/29 04:46:22;;;;;;;8.10;3.80;;;;;;;10.75;84.14;101740.88;5033655;28;20275;-69
2021/03/29 04:48:48;;;;;;;9.73;4.37;;;;;;;10.62;86.11;101751.22;5050862;28;20310;-69
2021/03/29 04:51:13;;;;;;;7.50;4.03;;;;;;;10.84;85.24;101742.06;5033453;28;20234;-70
2021/03/29 04:53:39;;;;;;;8.53;3.80;;;;;;;10.97;84.84;101753.47;5050730;28;20199;-68
2021/03/29 04:56:07;;;;;;;14.77;7.10;;;;;;;10.95;83.56;101752.88;5037046;28;20211;-68
2021/03/29 04:58:32;;;;;;;11.37;6.50;;;;;;;10.81;84.83;101750.75;5032947;28;20188;-68
2021/03/29 05:01:00;;;;;;;8.93;5.00;;;;;;;10.89;84.73;101742.97;4995439;28;20229;-70
2021/03/29 05:03:26;;;;;;;9.17;4.10;;;;;;;10.80;85.40;101746.34;5030239;28;20295;-68
2021/03/29 05:05:53;;;;;;;8.20;4.00;;;;;;;11.01;84.86;101742.91;5030962;28;20259;-67
2021/03/29 05:08:21;;;;;;;6.83;3.43;;;;;;;11.00;83.87;101743.97;5027580;28;20209;-69
2021/03/29 05:10:47;;;;;;;8.33;4.00;;;;;;;10.73;86.79;101740.25;5023581;28;20208;-69
2021/03/29 05:13:15;;;;;;;8.73;3.77;;;;;;;10.86;84.58;101737.22;5028529;28;20215;-69
2021/03/29 05:15:45;;;;;;;8.30;4.00;;;;;;;10.88;84.08;101743.25;5028921;28;20236;-68
2021/03/29 05:18:13;;;;;;;10.17;3.80;;;;;;;10.84;84.16;101744.78;5022141;28;20684;-70
2021/03/29 05:20:39;;;;;;;10.40;3.87;;;;;;;10.94;83.48;101753.13;5008081;28;20302;-68
2021/03/29 05:23:04;;;;;;;13.03;3.93;;;;;;;10.83;84.32;101756.75;4996086;28;20210;-68
2021/03/29 05:25:30;;;;;;;7.27;3.60;;;;;;;11.09;83.09;101775.94;5029415;28;20239;-69
2021/03/29 05:27:55;;;;;;;10.27;4.07;;;;;;;10.90;83.66;101760.13;4999867;28;20227;-69
2021/03/29 05:30:21;;;;;;;10.53;3.63;;;;;;;11.12;82.13;101766.44;5009615;28;20185;-69
2021/03/29 05:32:52;;;;;;;8.53;3.63;;;;;;;11.05;82.78;101763.91;5009223;28;20693;-69
2021/03/29 05:35:17;;;;;;;10.87;3.30;;;;;;;10.95;82.89;101765.63;4998773;28;20188;-69
2021/03/29 05:37:51;;;;;;;9.10;3.67;;;;;;;11.09;82.33;101769.69;5087529;27;20510;-70
2021/03/29 05:40:18;;;;;;;7.00;3.47;;;;;;;10.97;82.98;101760.78;5084802;27;20175;-70
2021/03/29 05:42:46;;;;;;;8.20;3.37;;;;;;;10.97;82.77;101771.63;5094009;28;20229;-68
2021/03/29 05:45:12;;;;;;;10.23;3.50;;;;;;;10.97;82.07;101771.63;5081054;28;20190;-71
2021/03/29 05:47:39;;;;;;;9.23;3.47;;;;;;;11.02;82.87;101777.16;5049404;28;20175;-70
2021/03/29 05:50:16;;;;;;;8.07;3.27;;;;;;;11.34;80.74;101774.41;5063941;28;20186;-71
2021/03/29 05:52:44;;;;;;;8.30;3.43;;;;;;;11.21;81.57;101773.97;5082206;28;20244;-69
2021/03/29 05:55:14;;;;;;;8.20;3.40;;;;;;;11.24;80.83;101774.25;5065790;28;20175;-70
2021/03/29 06:00:36;;;;;;;9.27;3.13;;;;;;;11.38;80.30;101781.00;5049808;28;20743;-70
2021/03/29 06:03:40;;;;;;;7.60;3.13;;;;;;;11.34;80.86;101779.88;5065107;28;20211;-72
2021/03/29 06:06:11;;;;;;;7.40;2.90;;;;;;;11.50;79.10;101779.06;5047252;28;20723;-71
2021/03/29 06:08:55;;;;;;;10.63;3.47;;;;;;;11.69;77.65;101777.69;5065715;28;20341;-70
2021/03/29 06:11:39;;;;;;;9.63;3.57;;;;;;;11.35;79.70;101792.38;5065109;28;20329;-69
2021/03/29 06:14:16;;;;;;;8.07;3.10;;;;;;;11.54;78.72;101791.09;5066993;28;20222;-69
2021/03/29 06:17:11;;;;;;;6.93;2.93;;;;;;;11.70;76.66;101782.03;5066596;28;20223;-72
2021/03/29 06:19:53;;;;;;;9.23;2.67;;;;;;;11.76;76.83;101772.88;5044897;28;20683;-70
2021/03/29 06:22:26;;;;;;;6.97;3.23;;;;;;;11.75;76.91;101787.56;5065307;28;20231;-70
2021/03/29 06:24:56;;;;;;;8.33;4.33;;;;;;;11.67;77.73;101791.53;5048919;28;20323;-70
2021/03/29 06:27:24;;;;;;;7.13;3.30;;;;;;;11.88;76.50;101785.25;5064688;28;20249;-69
2021/03/29 06:29:50;;;;;;;8.00;2.77;;;;;;;11.62;76.79;101788.72;5065539;28;20183;-70
2021/03/29 06:32:21;;;;;;;9.33;2.97;;;;;;;11.73;76.93;101784.25;5047233;28;20214;-70
2021/03/29 06:34:47;;;;;;;8.60;2.70;;;;;;;11.96;75.74;101779.41;5032003;28;20187;-69
2021/03/29 06:37:12;;;;;;;7.60;3.10;;;;;;;12.02;75.84;101775.66;5047811;28;20233;-69
2021/03/29 06:39:43;;;;;;;7.43;3.20;;;;;;;12.27;75.04;101775.94;5048535;28;20187;-69
2021/03/29 06:42:11;;;;;;;8.67;3.03;;;;;;;12.38;73.18;101770.31;5083408;28;20683;-68
2021/03/29 06:44:37;;;;;;;8.17;3.13;;;;;;;12.38;72.39;101773.03;5085119;28;20209;-69
2021/03/29 06:47:18;;;;;;;9.57;3.10;;;;;;;12.43;72.51;101775.84;5066857;28;20277;-68
2021/03/29 06:49:52;;;;;;;6.93;2.70;;;;;;;12.31;72.09;101786.06;5055836;28;20194;-71
2021/03/29 06:52:27;;;;;;;5.57;2.57;;;;;;;12.35;72.97;101789.94;5053256;28;20914;-69
2021/03/29 06:55:26;;;;;;;9.50;2.93;;;;;;;12.69;72.03;101795.75;5054998;28;20244;-70
2021/03/29 06:58:02;;;;;;;9.40;2.47;;;;;;;12.44;71.86;101793.84;5071511;28;20207;-69
2021/03/29 07:00:31;;;;;;;4.83;2.27;;;;;;;12.53;70.90;101792.31;5054453;28;20276;-69
2021/03/29 07:03:04;;;;;;;7.93;2.77;;;;;;;12.49;71.25;101796.59;5070523;28;20277;-71
2021/03/29 07:05:30;;;;;;;7.27;2.87;;;;;;;12.46;72.05;101802.59;5054493;28;20230;-69
2021/03/29 07:07:57;;;;;;;8.40;3.17;;;;;;;12.86;70.50;101799.19;5071404;28;20186;-69
2021/03/29 07:10:23;;;;;;;7.97;2.57;;;;;;;12.71;71.06;101792.75;5072067;28;20273;-70
2021/03/29 07:12:48;;;;;;;8.87;2.80;;;;;;;12.79;71.63;101800.47;5053802;28;20624;-70
2021/03/29 07:15:14;;;;;;;7.53;2.83;;;;;;;12.68;70.80;101799.53;5070657;28;20187;-70
2021/03/29 07:17:44;;;;;;;7.73;2.63;;;;;;;12.70;70.44;101789.19;5071377;28;20272;-69
2021/03/29 07:20:25;;;;;;;6.30;2.27;;;;;;;12.68;70.26;101796.81;5070657;28;20229;-71
2021/03/29 07:22:52;;;;;;;6.13;2.60;;;;;;;12.50;71.39;101803.72;5054367;28;20199;-69
2021/03/29 07:25:19;;;;;;;7.63;2.90;;;;;;;12.86;70.52;101803.84;5070942;28;20220;-72
2021/03/29 07:27:57;;;;;;;6.13;2.50;;;;;;;12.89;69.24;101797.84;5071327;28;20221;-70
2021/03/29 07:30:47;;;;;;;7.10;2.57;;;;;;;13.02;69.35;101803.72;5054646;28;20262;-71
2021/03/29 07:33:16;;;;;;;8.03;2.80;;;;;;;13.17;68.84;101796.47;5087293;28;20195;-69
2021/03/29 07:35:52;;;;;;;7.97;2.73;;;;;;;13.30;68.77;101793.28;5053491;28;20229;-69
2021/03/29 07:38:19;;;;;;;6.07;2.57;;;;;;;13.02;69.02;101798.25;5070991;28;20274;-69
2021/03/29 07:40:49;;;;;;;4.60;2.30;;;;;;;13.13;68.42;101799.97;5070716;28;20219;-69
2021/03/29 07:43:17;;;;;;;6.97;2.67;;;;;;;13.09;68.43;101807.88;5070361;28;20211;-70
2021/03/29 07:45:45;;;;;;;6.43;2.60;;;;;;;12.82;69.07;101814.44;5054147;28;20299;-71
2021/03/29 07:48:16;;;;;;;5.27;2.40;;;;;;;12.90;69.56;101821.31;5054587;28;20186;-69
2021/03/29 07:50:45;;;;;;;5.67;2.57;;;;;;;13.02;68.80;101814.63;5037294;28;20231;-69
2021/03/29 07:53:20;;;;;;;9.33;3.17;;;;;;;13.08;69.52;101819.03;5053558;28;20784;-69
2021/03/29 07:55:48;;;;;;;8.10;2.57;;;;;;;13.19;67.81;101809.84;5070134;28;20218;-69
2021/03/29 07:58:22;;;;;;;6.50;2.80;;;;;;;13.46;67.22;101811.44;5070720;28;20715;-70
2021/03/29 08:00:55;;;;;;;6.30;3.10;;;;;;;13.72;66.36;101811.31;5069208;28;20223;-69
2021/03/29 08:03:24;;;;;;;7.03;2.73;;;;;;;13.52;66.23;101816.66;5069876;28;20563;-69
2021/03/29 08:05:51;;;;;;;4.90;2.60;;;;;;;13.35;66.59;101814.31;5070111;28;20581;-71
2021/03/29 08:08:31;;;;;;;7.00;2.73;;;;;;;13.72;67.07;101811.31;5070598;28;20208;-71
2021/03/29 08:11:17;;;;;;;5.37;2.47;;;;;;;13.35;66.90;101811.59;5069808;28;20719;-69
2021/03/29 08:13:50;;;;;;;7.93;3.00;;;;;;;13.20;66.50;101822.41;5053574;28;20773;-69
2021/03/29 08:16:37;;;;;;;7.23;2.80;;;;;;;13.18;67.83;101813.66;5070223;28;20222;-69
2021/03/29 08:19:14;;;;;;;7.97;3.00;;;;;;;13.61;68.16;101819.72;5039454;28;20202;-70
2021/03/29 08:21:58;;;;;;;6.03;2.50;;;;;;;13.82;65.77;101817.63;5052717;28;20252;-69
2021/03/29 08:24:29;;;;;;;7.00;2.20;;;;;;;13.83;65.24;101808.38;5071522;28;20183;-69
2021/03/29 08:27:20;;;;;;;7.83;2.90;;;;;;;13.75;65.07;101832.63;5072718;28;20249;-70
2021/03/29 08:29:47;;;;;;;5.73;2.10;;;;;;;13.81;65.19;101814.34;5070816;28;20203;-70
2021/03/29 08:32:17;;;;;;;6.03;2.10;;;;;;;13.79;64.71;101822.81;5054046;28;20218;-72
2021/03/29 08:34:49;;;;;;;10.27;2.70;;;;;;;14.02;64.70;101825.16;5056597;28;20233;-70
2021/03/29 08:37:17;;;;;;;7.40;2.93;;;;;;;14.16;65.31;101826.31;5052442;28;20230;-71
2021/03/29 08:39:46;;;;;;;7.37;2.60;;;;;;;14.21;64.07;101812.66;5052573;28;20278;-70
2021/03/29 08:42:13;;;;;;;5.70;3.07;;;;;;;14.33;62.79;101814.06;5067594;28;20219;-72
2021/03/29 08:44:40;;;;;;;6.90;2.63;;;;;;;14.30;63.76;101826.38;5070789;28;20178;-72
2021/03/29 08:47:16;;;;;;;8.43;3.10;;;;;;;14.29;64.10;101824.72;5068776;28;20215;-69
2021/03/29 08:49:43;;;;;;;6.70;2.47;;;;;;;14.35;62.53;101829.09;5054286;28;20234;-70
2021/03/29 08:52:08;;;;;;;4.80;2.80;;;;;;;14.62;62.31;101835.22;5068055;28;20232;-70
2021/03/29 08:54:46;;;;;;;5.17;2.63;;;;;;;14.72;61.66;101835.22;5036668;28;20931;-70
2021/03/29 08:57:12;;;;;;;5.13;2.70;;;;;;;14.46;62.67;101844.47;5085182;28;20230;-71
2021/03/29 08:59:38;;;;;;;6.82;2.85;;;;;;;14.33;63.07;101836.75;5070585;28;20186;-71
2021/03/29 09:02:16;;;;;;;6.67;2.60;;;;;;;14.43;62.77;101836.81;5068080;28;20246;-70
2021/03/29 09:05:11;;;;;;;6.67;2.83;;;;;;;14.53;62.72;101845.03;5072587;28;20182;-69
2021/03/29 09:07:46;;;;;;;5.45;2.25;;;;;;;14.83;62.79;101834.97;5060187;28;20214;-69
2021/03/29 09:10:21;;;;;;;6.90;2.60;;;;;;;14.65;62.18;101851.91;5068757;28;20202;-70
2021/03/29 09:13:11;;;;;;;4.53;2.28;;;;;;;14.64;61.58;101860.38;5069442;28;20198;-69
2021/03/29 09:15:44;;;;;;;8.43;2.90;;;;;;;14.62;62.48;101861.75;5051281;28;20249;-70
2021/03/29 09:18:16;;;;;;;7.25;3.03;;;;;;;15.06;60.31;101851.69;5052377;28;20274;-70
2021/03/29 09:20:49;;;;;;;6.63;3.10;;;;;;;14.95;59.97;101853.91;5019207;28;20226;-72
2021/03/29 09:23:28;;;;;;;5.47;2.75;;;;;;;15.11;60.67;101872.81;5052477;28;20202;-71
2021/03/29 09:26:00;;;;;;;5.33;2.57;;;;;;;15.14;60.10;101864.88;5068659;28;20301;-69
2021/03/29 09:30:57;;;;;;;8.43;2.70;;;;;;;15.70;58.85;101866.53;5069232;28;20222;-71
2021/03/29 09:33:25;;;;;;;7.93;2.58;;;;;;;15.31;59.36;101862.72;5068120;28;20260;-70
2021/03/29 09:35:51;;;;;;;5.43;2.47;;;;;;;15.43;59.54;101860.50;5069840;28;20218;-70
2021/03/29 09:38:34;;;;;;;4.78;2.30;;;;;;;15.43;59.07;101871.47;5069379;28;20216;-69
2021/03/29 09:41:01;;;;;;;6.65;2.40;;;;;;;15.38;59.21;101881.59;5068846;28;20252;-70
2021/03/29 09:43:26;;;;;;;6.00;2.60;;;;;;;15.30;59.78;101879.41;5051822;28;20255;-70
2021/03/29 09:46:06;;;;;;;7.13;2.80;;;;;;;15.79;59.00;101876.63;5068276;28;20230;-70
2021/03/29 09:48:32;;;;;;;7.38;3.50;;;;;;;15.61;58.96;101874.47;5069423;28;20726;-70
2021/03/29 09:50:58;;;;;;;4.07;2.47;;;;;;;15.38;59.37;101879.66;5068406;28;20313;-70
2021/03/29 09:53:24;;;;;;;6.00;2.90;;;;;;;15.49;60.06;101881.31;5068638;28;20228;-69
2021/03/29 09:55:55;;;;;;;7.40;2.90;;;;;;;15.67;59.29;101867.06;5051878;28;20226;-70
2021/03/29 09:58:25;;;;;;;7.20;2.75;;;;;;;15.65;60.11;101872.00;5071385;28;20183;-70
2021/03/29 10:00:55;;;;;;;6.47;3.00;;;;;;;15.89;59.61;101882.91;5053383;28;20215;-70
2021/03/29 10:03:21;;;;;;;6.05;2.78;;;;;;;15.94;59.39;101874.69;5036408;28;20207;-71
2021/03/29 10:05:47;;;;;;;5.22;2.90;;;;;;;16.01;58.95;101875.22;5039556;28;20622;-71
2021/03/29 10:08:41;;;;;;;6.97;2.55;;;;;;;15.83;60.00;101878.53;5073597;28;20211;-69
2021/03/29 10:11:08;;;;;;;5.25;2.67;;;;;;;16.03;59.73;101873.00;5072256;28;20715;-70
2021/03/29 10:13:39;;;;;;;4.13;2.50;;;;;;;16.08;59.04;101881.25;5072905;28;20214;-69
2021/03/29 10:16:42;;;;;;;4.25;2.58;;;;;;;16.26;58.41;101878.75;5070601;28;20716;-70
2021/03/29 10:19:21;;;;;;;6.55;2.65;;;;;;;16.14;58.08;101874.63;5047190;28;20202;-70
2021/03/29 10:22:21;;;;;;;7.93;3.60;;;;;;;16.46;57.68;101877.81;5068200;28;20248;-70
2021/03/29 10:25:15;;;;;;;7.47;2.72;;;;;;;16.71;57.69;101873.84;5059251;28;20186;-70
2021/03/29 10:27:51;;;;;;;5.85;2.35;;;;;;;16.74;56.15;101884.28;5089526;28;20584;-71
2021/03/29 10:30:19;;;;;;;6.15;2.40;;;;;;;16.61;56.32;101876.66;5072720;28;20182;-71
2021/03/29 10:32:57;;;;;;;4.45;2.33;;;;;;;17.00;56.15;101880.28;5073300;28;20209;-70
2021/03/29 10:35:28;;;;;;;4.93;2.47;;;;;;;17.02;55.55;101875.31;5072601;28;20229;-71
2021/03/29 10:38:02;;;;;;;5.35;2.53;;;;;;;17.06;55.70;101877.19;5058627;28;20233;-71
2021/03/29 10:40:28;;;;;;;5.47;2.65;;;;;;;17.10;55.48;101871.97;5079145;28;20340;-70
2021/03/29 10:42:54;;;;;;;6.57;2.80;;;;;;;17.36;55.41;101863.25;5078935;28;20212;-70
2021/03/29 10:45:20;;;;;;;7.55;2.72;;;;;;;17.56;54.95;101865.84;5058571;28;20220;-69
2021/03/29 10:47:46;;;;;;;5.97;2.92;;;;;;;17.42;55.89;101862.13;5074052;28;20179;-70
2021/03/29 10:50:19;;;;;;;5.65;2.25;;;;;;;17.62;55.35;101865.53;5055211;28;20197;-71
2021/03/29 10:52:46;;;;;;;7.32;2.30;;;;;;;17.81;54.38;101863.69;5071970;28;20217;-70
2021/03/29 10:55:17;;;;;;;5.55;2.35;;;;;;;17.58;54.43;101867.22;5071067;28;20653;-70
2021/03/29 10:57:43;;;;;;;5.85;2.63;;;;;;;17.63;54.60;101866.34;5055294;28;20202;-70
2021/03/29 11:00:09;;;;;;;4.90;2.50;;;;;;;17.49;55.19;101874.44;5038271;28;20655;-70
2021/03/29 11:02:36;;;;;;;6.03;2.50;;;;;;;17.34;54.98;101868.22;5053116;28;20237;-70
2021/03/29 11:05:04;;;;;;;5.95;2.58;;;;;;;17.66;54.79;101868.53;5071410;28;20229;-70
2021/03/29 11:07:30;;;;;;;6.82;2.83;;;;;;;18.06;55.28;101880.75;5088079;28;20246;-71
2021/03/29 11:09:56;;;;;;;4.07;2.40;;;;;;;17.61;54.97;101880.38;5072957;28;20191;-71
2021/03/29 11:12:22;;;;;;;7.68;2.50;;;;;;;17.78;54.84;101884.34;5053302;28;20827;-71
2021/03/29 11:14:48;;;;;;;6.88;2.55;;;;;;;17.80;54.65;101879.38;5054393;28;20171;-70
2021/03/29 11:17:13;;;;;;;5.88;2.92;;;;;;;17.87;54.87;101881.75;5053599;28;20838;-70
2021/03/29 11:19:39;;;;;;;6.80;2.58;;;;;;;18.23;53.87;101878.38;5054540;28;20565;-70
2021/03/29 11:22:07;;;;;;;4.55;2.72;;;;;;;18.27;53.54;101885.75;5069005;28;20230;-72
2021/03/29 11:24:33;;;;;;;7.68;2.50;;;;;;;18.24;53.98;101883.59;5038354;28;20167;-71
2021/03/29 11:26:59;;;;;;;3.92;2.50;;;;;;;18.04;54.05;101882.13;5070307;28;20499;-70
2021/03/29 11:29:25;;;;;;;5.53;2.35;;;;;;;18.04;53.37;101884.88;5070897;28;20554;-71
2021/03/29 11:31:53;;;;;;;4.75;2.58;;;;;;;18.05;53.85;101881.84;5052720;28;20305;-71
2021/03/29 11:34:20;;;;;;;6.53;2.70;;;;;;;18.03;54.13;101880.50;5037650;28;20187;-71
2021/03/29 11:36:46;;;;;;;5.85;2.70;;;;;;;18.50;53.90;101883.00;5037634;28;20688;-70
2021/03/29 11:39:12;;;;;;;6.10;2.63;;;;;;;18.70;52.69;101892.91;5054279;28;20178;-71
2021/03/29 11:41:38;;;;;;;6.60;2.30;;;;;;;18.77;53.51;101894.22;5053215;28;20267;-71
2021/03/29 11:44:06;;;;;;;6.00;2.38;;;;;;;18.62;52.97;101877.06;5036871;28;20199;-70